createdAt,value
2023-02-24T00:00:38.964Z,171.11
2023-02-24T00:01:38.953Z,171.29
2023-02-24T00:02:38.956Z,172.08
2023-02-24T00:03:38.933Z,172.02
2023-02-24T00:04:38.865Z,170.62
2023-02-24T00:05:38.833Z,172.04
2023-02-24T00:06:38.804Z,172.28
2023-02-24T00:07:38.792Z,171.84
2023-02-24T00:08:38.752Z,171.95
2023-02-24T00:09:38.737Z,172.21
2023-02-24T00:10:38.706Z,172.23
2023-02-24T00:11:38.699Z,171.66
2023-02-24T00:12:38.672Z,173.03
2023-02-24T00:13:38.646Z,172.56
2023-02-24T00:14:38.620Z,171.85
2023-02-24T00:15:38.608Z,172.52
2023-02-24T00:16:38.689Z,173.58
2023-02-24T00:17:38.585Z,170.40
2023-02-24T00:18:38.546Z,170.73
2023-02-24T00:19:38.566Z,172.33
2023-02-24T00:20:38.485Z,172.08
2023-02-24T00:21:38.458Z,172.34
2023-02-24T00:22:38.450Z,171.94
2023-02-24T00:23:38.413Z,172.38
2023-02-24T00:24:38.400Z,172.88
2023-02-24T00:25:38.361Z,172.81
2023-02-24T00:26:38.333Z,173.04
2023-02-24T00:27:38.332Z,172.31
2023-02-24T00:28:38.285Z,171.45
2023-02-24T00:29:38.259Z,172.99
2023-02-24T00:30:38.245Z,172.37
2023-02-24T00:31:38.438Z,173.77
2023-02-24T00:32:38.348Z,171.39
2023-02-24T00:33:38.207Z,172.88
2023-02-24T00:34:38.194Z,173.30
2023-02-24T00:35:38.166Z,173.77
2023-02-24T00:36:38.143Z,172.32
2023-02-24T00:37:38.127Z,172.28
2023-02-24T00:38:38.109Z,172.22
2023-02-24T00:39:38.076Z,171.53
2023-02-24T00:40:38.064Z,172.20
2023-02-24T00:41:38.033Z,172.89
2023-02-24T00:42:37.994Z,173.37
2023-02-24T00:43:37.989Z,172.57
2023-02-24T00:44:38.001Z,172.75
2023-02-24T00:45:37.927Z,173.16
2023-02-24T00:46:37.945Z,170.64
2023-02-24T00:47:37.887Z,172.35
2023-02-24T00:48:37.851Z,171.18
2023-02-24T00:49:37.822Z,171.77
2023-02-24T00:50:37.787Z,172.95
2023-02-24T00:51:37.776Z,172.55
2023-02-24T00:52:37.767Z,171.26
2023-02-24T00:53:37.726Z,173.23
2023-02-24T00:54:37.695Z,171.81
2023-02-24T00:55:37.673Z,172.31
2023-02-24T00:56:37.648Z,173.40
2023-02-24T00:57:37.618Z,173.23
2023-02-24T00:58:37.595Z,172.07
2023-02-24T00:59:37.560Z,172.14
2023-02-24T01:00:37.549Z,172.26
2023-02-24T01:01:37.528Z,172.09
2023-02-24T01:02:37.468Z,172.33
2023-02-24T01:03:37.464Z,172.60
2023-02-24T01:04:37.426Z,173.20
2023-02-24T01:05:37.405Z,172.68
2023-02-24T01:06:37.370Z,173.78
2023-02-24T01:07:37.347Z,172.31
2023-02-24T01:08:37.341Z,172.42
2023-02-24T01:09:37.312Z,172.56
2023-02-24T01:10:37.272Z,172.37
2023-02-24T01:11:37.288Z,172.98
2023-02-24T01:12:37.214Z,174.83
2023-02-24T01:13:37.194Z,172.78
2023-02-24T01:14:37.161Z,173.62
2023-02-24T01:15:37.137Z,174.24
2023-02-24T01:16:37.111Z,172.98
2023-02-24T01:17:37.080Z,173.83
2023-02-24T01:18:37.060Z,173.05
2023-02-24T01:19:37.030Z,174.91
2023-02-24T01:20:37.006Z,174.28
2023-02-24T01:21:36.981Z,173.94
2023-02-24T01:22:36.951Z,174.39
2023-02-24T01:23:36.932Z,174.68
2023-02-24T01:24:36.942Z,175.02
2023-02-24T01:25:36.892Z,174.19
2023-02-24T01:26:36.870Z,172.93
2023-02-24T01:27:36.858Z,173.94
2023-02-24T01:28:36.825Z,174.12
2023-02-24T01:29:36.805Z,175.10
2023-02-24T01:30:36.774Z,174.38
2023-02-24T01:31:36.888Z,174.59
2023-02-24T01:32:36.888Z,175.65
2023-02-24T01:33:36.712Z,174.02
2023-02-24T01:34:36.699Z,175.30
2023-02-24T01:35:36.667Z,175.45
2023-02-24T01:36:36.646Z,174.97
2023-02-24T01:37:36.636Z,173.50
2023-02-24T01:38:36.616Z,176.43
2023-02-24T01:39:36.608Z,175.16
2023-02-24T01:40:36.576Z,173.01
2023-02-24T01:41:36.557Z,175.45
2023-02-24T01:42:36.543Z,174.74
2023-02-24T01:43:36.516Z,176.63
2023-02-24T01:44:36.496Z,176.73
2023-02-24T01:45:36.490Z,176.49
2023-02-24T01:46:36.493Z,175.57
2023-02-24T01:47:36.439Z,176.44
2023-02-24T01:48:36.411Z,176.97
2023-02-24T01:49:36.387Z,176.96
2023-02-24T01:50:36.369Z,176.82
2023-02-24T01:51:36.370Z,175.73
2023-02-24T01:52:36.326Z,175.39
2023-02-24T01:53:36.323Z,175.53
2023-02-24T01:54:36.303Z,175.81
2023-02-24T01:55:36.269Z,175.68
2023-02-24T01:56:36.250Z,176.36
2023-02-24T01:57:36.228Z,174.78
2023-02-24T01:58:36.220Z,176.88
2023-02-24T01:59:36.197Z,176.32
2023-02-24T02:00:36.169Z,175.27
2023-02-24T02:01:36.289Z,176.61
2023-02-24T02:02:36.233Z,176.51
2023-02-24T02:03:36.125Z,175.10
2023-02-24T02:04:36.100Z,176.76
2023-02-24T02:05:36.078Z,175.80
2023-02-24T02:06:36.084Z,176.09
2023-02-24T02:07:36.040Z,175.88
2023-02-24T02:08:36.035Z,177.08
2023-02-24T02:09:36.012Z,175.33
2023-02-24T02:10:36.002Z,177.52
2023-02-24T02:11:35.970Z,176.29
2023-02-24T02:12:35.945Z,176.31
2023-02-24T02:13:36.082Z,175.29
2023-02-24T02:14:35.915Z,177.78
2023-02-24T02:15:35.895Z,177.02
2023-02-24T02:16:36.037Z,177.66
2023-02-24T02:17:35.858Z,175.31
2023-02-24T02:18:35.839Z,175.63
2023-02-24T02:19:35.826Z,176.00
2023-02-24T02:20:35.810Z,175.70
2023-02-24T02:21:35.812Z,176.49
2023-02-24T02:22:35.793Z,176.71
2023-02-24T02:23:35.782Z,175.79
2023-02-24T02:24:35.757Z,174.20
2023-02-24T02:25:35.726Z,176.52
2023-02-24T02:26:35.732Z,175.84
2023-02-24T02:27:35.685Z,176.10
2023-02-24T02:28:35.657Z,175.53
2023-02-24T02:29:35.635Z,176.11
2023-02-24T02:30:35.658Z,176.27
2023-02-24T02:31:35.811Z,175.42
2023-02-24T02:32:35.677Z,176.05
2023-02-24T02:33:35.556Z,175.34
2023-02-24T02:34:35.526Z,175.91
2023-02-24T02:35:35.508Z,173.88
2023-02-24T02:36:35.480Z,173.47
2023-02-24T02:37:35.471Z,177.15
2023-02-24T02:38:35.452Z,176.28
2023-02-24T02:39:35.416Z,174.50
2023-02-24T02:40:35.396Z,174.89
2023-02-24T02:41:35.371Z,175.26
2023-02-24T02:42:35.353Z,174.73
2023-02-24T02:43:35.331Z,174.21
2023-02-24T02:44:35.301Z,173.67
2023-02-24T02:45:35.353Z,170.65
2023-02-24T02:46:35.250Z,173.21
2023-02-24T02:47:35.276Z,173.67
2023-02-24T02:48:35.224Z,173.33
2023-02-24T02:49:35.218Z,174.84
2023-02-24T02:50:35.189Z,174.84
2023-02-24T02:51:35.159Z,173.39
2023-02-24T02:52:35.146Z,174.13
2023-02-24T02:53:35.125Z,173.53
2023-02-24T02:54:35.093Z,175.88
2023-02-24T02:55:35.074Z,174.77
2023-02-24T02:56:35.056Z,174.89
2023-02-24T02:57:35.032Z,174.82
2023-02-24T02:58:35.026Z,174.80
2023-02-24T02:59:34.999Z,175.42
2023-02-24T03:00:34.987Z,174.48
2023-02-24T03:01:34.994Z,174.20
2023-02-24T03:02:34.938Z,175.35
2023-02-24T03:03:34.910Z,174.15
2023-02-24T03:04:34.919Z,174.93
2023-02-24T03:05:34.868Z,174.72
2023-02-24T03:06:34.850Z,174.41
2023-02-24T03:07:34.831Z,171.92
2023-02-24T03:08:34.808Z,175.49
2023-02-24T03:09:34.787Z,174.08
2023-02-24T03:10:34.890Z,174.18
2023-02-24T03:11:34.734Z,174.23
2023-02-24T03:12:34.719Z,173.28
2023-02-24T03:13:34.687Z,174.50
2023-02-24T03:14:34.676Z,175.68
2023-02-24T03:15:34.682Z,173.86
2023-02-24T03:16:34.713Z,174.32
2023-02-24T03:17:34.594Z,174.83
2023-02-24T03:18:34.585Z,176.12
2023-02-24T03:19:34.536Z,176.24
2023-02-24T03:20:34.520Z,174.79
2023-02-24T03:21:34.524Z,175.08
2023-02-24T03:22:34.480Z,175.79
2023-02-24T03:23:34.448Z,175.95
2023-02-24T03:24:34.434Z,177.93
2023-02-24T03:25:34.414Z,176.06
2023-02-24T03:26:34.394Z,176.38
2023-02-24T03:27:34.354Z,176.01
2023-02-24T03:28:34.352Z,175.76
2023-02-24T03:29:34.305Z,176.51
2023-02-24T03:30:34.297Z,175.92
2023-02-24T03:31:34.296Z,176.08
2023-02-24T03:32:34.332Z,174.87
2023-02-24T03:33:34.201Z,176.12
2023-02-24T03:34:34.179Z,175.35
2023-02-24T03:35:34.149Z,174.93
2023-02-24T03:36:34.146Z,175.42
2023-02-24T03:37:34.092Z,175.84
2023-02-24T03:38:34.079Z,175.56
2023-02-24T03:39:34.051Z,177.26
2023-02-24T03:40:34.037Z,175.62
2023-02-24T03:41:34.017Z,176.69
2023-02-24T03:42:34.002Z,175.40
2023-02-24T03:43:33.969Z,176.22
2023-02-24T03:44:33.960Z,176.72
2023-02-24T03:45:33.919Z,176.33
2023-02-24T03:46:33.909Z,176.64
2023-02-24T03:47:33.894Z,176.80
2023-02-24T03:48:33.863Z,177.28
2023-02-24T03:49:33.834Z,176.66
2023-02-24T03:50:33.821Z,178.60
2023-02-24T03:51:33.814Z,178.45
2023-02-24T03:52:33.785Z,180.25
2023-02-24T03:53:33.768Z,179.50
2023-02-24T03:54:33.735Z,181.29
2023-02-24T03:55:33.702Z,181.31
2023-02-24T03:56:33.735Z,184.54
2023-02-24T03:57:33.660Z,184.21
2023-02-24T03:58:33.666Z,185.57
2023-02-24T03:59:33.608Z,184.96
2023-02-24T04:00:33.600Z,187.48
2023-02-24T04:01:33.568Z,187.58
2023-02-24T04:02:33.579Z,189.54
2023-02-24T04:03:33.537Z,189.89
2023-02-24T04:04:33.577Z,189.60
2023-02-24T04:05:33.471Z,189.95
2023-02-24T04:06:33.471Z,190.42
2023-02-24T04:07:33.413Z,191.49
2023-02-24T04:08:33.393Z,192.47
2023-02-24T04:09:33.439Z,193.53
2023-02-24T04:10:33.338Z,192.42
2023-02-24T04:11:33.312Z,192.39
2023-02-24T04:12:33.337Z,194.17
2023-02-24T04:13:33.271Z,194.66
2023-02-24T04:14:33.248Z,194.50
2023-02-24T04:15:33.254Z,193.48
2023-02-24T04:16:33.267Z,195.56
2023-02-24T04:17:33.158Z,196.54
2023-02-24T04:18:33.136Z,195.43
2023-02-24T04:19:33.108Z,195.59
2023-02-24T04:20:33.074Z,198.66
2023-02-24T04:21:33.049Z,199.22
2023-02-24T04:22:33.030Z,198.04
2023-02-24T04:23:32.983Z,197.56
2023-02-24T04:24:32.951Z,195.40
2023-02-24T04:25:32.952Z,199.38
2023-02-24T04:26:34.899Z,200.37
2023-02-24T04:27:32.920Z,201.11
2023-02-24T04:28:32.893Z,199.61
2023-02-24T04:29:32.851Z,200.27
2023-02-24T04:30:32.841Z,200.69
2023-02-24T04:31:32.937Z,201.92
2023-02-24T04:32:32.991Z,201.07
2023-02-24T04:33:32.754Z,203.00
2023-02-24T04:34:32.716Z,202.45
2023-02-24T04:35:32.701Z,201.89
2023-02-24T04:36:32.668Z,201.10
2023-02-24T04:37:32.645Z,203.50
2023-02-24T04:38:32.615Z,201.70
2023-02-24T04:39:32.579Z,202.95
2023-02-24T04:40:32.564Z,203.67
2023-02-24T04:41:32.535Z,202.64
2023-02-24T04:42:32.512Z,203.29
2023-02-24T04:43:32.466Z,203.86
2023-02-24T04:44:32.448Z,204.88
2023-02-24T04:45:32.422Z,204.74
2023-02-24T04:46:32.652Z,205.98
2023-02-24T04:47:32.380Z,204.91
2023-02-24T04:48:32.344Z,204.01
2023-02-24T04:49:32.313Z,205.09
2023-02-24T04:50:32.285Z,204.54
2023-02-24T04:51:32.257Z,205.76
2023-02-24T04:52:32.239Z,206.33
2023-02-24T04:53:32.205Z,206.65
2023-02-24T04:54:32.187Z,204.94
2023-02-24T04:55:32.155Z,207.14
2023-02-24T04:56:32.129Z,207.65
2023-02-24T04:57:32.117Z,207.07
2023-02-24T04:58:32.082Z,206.49
2023-02-24T04:59:32.063Z,207.19
2023-02-24T05:00:32.028Z,207.61
2023-02-24T05:01:32.022Z,207.71
2023-02-24T05:02:31.998Z,208.32
2023-02-24T05:03:32.071Z,206.37
2023-02-24T05:04:32.065Z,208.94
2023-02-24T05:05:31.941Z,207.78
2023-02-24T05:06:31.928Z,208.52
2023-02-24T05:07:31.909Z,208.09
2023-02-24T05:08:31.888Z,207.93
2023-02-24T05:09:31.864Z,209.44
2023-02-24T05:10:31.845Z,209.18
2023-02-24T05:11:31.832Z,208.53
2023-02-24T05:12:31.820Z,207.91
2023-02-24T05:13:31.884Z,204.90
2023-02-24T05:14:31.770Z,206.23
2023-02-24T05:15:31.753Z,203.99
2023-02-24T05:16:31.768Z,203.34
2023-02-24T05:17:31.714Z,201.49
2023-02-24T05:18:31.709Z,201.89
2023-02-24T05:19:31.716Z,201.14
2023-02-24T05:20:31.681Z,202.06
2023-02-24T05:21:31.660Z,199.46
2023-02-24T05:22:31.660Z,200.55
2023-02-24T05:23:31.652Z,200.97
2023-02-24T05:24:31.629Z,200.99
2023-02-24T05:25:31.618Z,198.68
2023-02-24T05:26:31.591Z,198.09
2023-02-24T05:27:31.571Z,198.33
2023-02-24T05:28:31.565Z,197.94
2023-02-24T05:29:31.559Z,196.93
2023-02-24T05:30:31.551Z,196.35
2023-02-24T05:31:31.559Z,197.23
2023-02-24T05:32:31.683Z,196.60
2023-02-24T05:33:31.500Z,196.15
2023-02-24T05:34:31.498Z,194.30
2023-02-24T05:35:31.476Z,193.71
2023-02-24T05:36:31.468Z,193.98
2023-02-24T05:37:31.439Z,192.62
2023-02-24T05:38:31.439Z,193.33
2023-02-24T05:39:31.415Z,191.94
2023-02-24T05:40:31.407Z,192.57
2023-02-24T05:41:31.399Z,193.19
2023-02-24T05:42:31.367Z,192.68
2023-02-24T05:43:31.361Z,191.61
2023-02-24T05:44:31.340Z,195.33
2023-02-24T05:45:31.321Z,191.13
2023-02-24T05:46:31.331Z,191.28
2023-02-24T05:47:31.284Z,191.44
2023-02-24T05:48:31.279Z,189.49
2023-02-24T05:49:31.256Z,190.69
2023-02-24T05:50:31.240Z,190.62
2023-02-24T05:51:31.227Z,191.00
2023-02-24T05:52:31.216Z,189.43
2023-02-24T05:53:31.214Z,189.53
2023-02-24T05:54:31.193Z,189.35
2023-02-24T05:55:31.184Z,189.19
2023-02-24T05:56:31.170Z,190.80
2023-02-24T05:57:31.153Z,189.44
2023-02-24T05:58:31.141Z,191.03
2023-02-24T05:59:31.116Z,191.18
2023-02-24T06:00:31.099Z,191.21
2023-02-24T06:01:31.091Z,189.29
2023-02-24T06:02:31.074Z,188.46
2023-02-24T06:03:31.122Z,190.78
2023-02-24T06:04:31.038Z,191.00
2023-02-24T06:05:31.032Z,190.37
2023-02-24T06:06:31.006Z,190.18
2023-02-24T06:07:30.999Z,190.29
2023-02-24T06:08:30.977Z,190.32
2023-02-24T06:09:30.964Z,187.48
2023-02-24T06:10:30.951Z,188.65
2023-02-24T06:11:30.967Z,187.87
2023-02-24T06:12:30.926Z,187.68
2023-02-24T06:13:30.909Z,187.72
2023-02-24T06:14:30.884Z,188.88
2023-02-24T06:15:30.868Z,187.75
2023-02-24T06:16:30.869Z,187.71
2023-02-24T06:17:30.850Z,186.76
2023-02-24T06:18:30.812Z,185.77
2023-02-24T06:19:30.785Z,184.63
2023-02-24T06:20:30.761Z,185.97
2023-02-24T06:21:30.745Z,186.70
2023-02-24T06:22:30.726Z,186.20
2023-02-24T06:23:30.724Z,185.54
2023-02-24T06:24:30.710Z,185.77
2023-02-24T06:25:30.680Z,187.27
2023-02-24T06:26:30.677Z,185.91
2023-02-24T06:27:30.632Z,185.88
2023-02-24T06:28:30.623Z,186.15
2023-02-24T06:29:30.628Z,185.69
2023-02-24T06:30:30.603Z,184.52
2023-02-24T06:31:30.591Z,184.37
2023-02-24T06:32:30.666Z,186.71
2023-02-24T06:33:30.529Z,189.47
2023-02-24T06:34:30.514Z,194.04
2023-02-24T06:35:30.479Z,202.36
2023-02-24T06:36:30.466Z,203.33
2023-02-24T06:37:30.438Z,213.81
2023-02-24T06:38:30.407Z,221.58
2023-02-24T06:39:30.391Z,230.03
2023-02-24T06:40:30.346Z,228.54
2023-02-24T06:41:30.339Z,230.59
2023-02-24T06:42:30.323Z,234.35
2023-02-24T06:43:30.280Z,239.43
2023-02-24T06:44:30.250Z,242.20
2023-02-24T06:45:30.231Z,244.61
2023-02-24T06:46:30.279Z,248.33
2023-02-24T06:47:30.180Z,249.57
2023-02-24T06:48:30.504Z,250.64
2023-02-24T06:49:30.157Z,250.00
2023-02-24T06:50:30.103Z,249.36
2023-02-24T06:51:30.143Z,249.05
2023-02-24T06:52:30.057Z,249.57
2023-02-24T06:53:30.022Z,249.57
2023-02-24T06:54:30.003Z,250.00
2023-02-24T06:55:29.965Z,249.34
2023-02-24T06:56:32.257Z,249.49
2023-02-24T06:57:29.934Z,249.52
2023-02-24T06:58:29.903Z,250.00
2023-02-24T06:59:29.879Z,247.48
2023-02-24T07:00:29.946Z,250.00
2023-02-24T07:01:29.882Z,250.00
2023-02-24T07:02:29.780Z,249.94
2023-02-24T07:03:29.804Z,249.43
2023-02-24T07:04:29.847Z,249.29
2023-02-24T07:05:29.672Z,248.98
2023-02-24T07:06:29.653Z,250.00
2023-02-24T07:07:29.614Z,250.00
2023-02-24T07:08:29.573Z,247.69
2023-02-24T07:09:29.548Z,250.00
2023-02-24T07:10:29.550Z,247.51
2023-02-24T07:11:30.494Z,247.25
2023-02-24T07:12:29.445Z,250.00
2023-02-24T07:13:29.594Z,249.65
2023-02-24T07:14:29.370Z,249.03
2023-02-24T07:15:29.346Z,250.00
2023-02-24T07:16:29.382Z,250.22
2023-02-24T07:17:29.289Z,250.37
2023-02-24T07:18:29.248Z,252.25
2023-02-24T07:19:29.281Z,256.14
2023-02-24T07:20:29.250Z,261.00
2023-02-24T07:21:29.201Z,250.00
2023-02-24T07:22:29.149Z,249.00
2023-02-24T07:23:29.090Z,248.78
2023-02-24T07:24:29.052Z,246.56
2023-02-24T07:25:29.025Z,249.71
2023-02-24T07:26:28.990Z,248.18
2023-02-24T07:27:28.983Z,247.50
2023-02-24T07:28:28.944Z,249.29
2023-02-24T07:29:28.922Z,250.08
2023-02-24T07:30:28.972Z,249.55
2023-02-24T07:31:28.952Z,248.72
2023-02-24T07:32:28.833Z,245.67
2023-02-24T07:33:28.786Z,246.62
2023-02-24T07:34:28.745Z,247.14
2023-02-24T07:35:28.722Z,247.73
2023-02-24T07:36:28.681Z,247.87
2023-02-24T07:37:28.654Z,248.18
2023-02-24T07:38:28.627Z,249.40
2023-02-24T07:39:28.589Z,252.46
2023-02-24T07:40:28.571Z,257.96
2023-02-24T07:41:30.446Z,248.77
2023-02-24T07:42:28.470Z,248.84
2023-02-24T07:43:28.447Z,247.29
2023-02-24T07:44:28.422Z,245.38
2023-02-24T07:45:28.449Z,240.17
2023-02-24T07:46:28.430Z,238.47
2023-02-24T07:47:28.314Z,239.08
2023-02-24T07:48:28.330Z,238.59
2023-02-24T07:49:28.243Z,235.95
2023-02-24T07:50:28.207Z,239.50
2023-02-24T07:51:28.173Z,235.78
2023-02-24T07:52:28.138Z,235.32
2023-02-24T07:53:28.154Z,233.01
2023-02-24T07:54:28.099Z,234.54
2023-02-24T07:55:28.081Z,231.61
2023-02-24T07:56:28.495Z,233.57
2023-02-24T07:57:27.974Z,230.70
2023-02-24T07:58:27.933Z,227.71
2023-02-24T07:59:27.944Z,227.60
2023-02-24T08:00:27.878Z,226.08
2023-02-24T08:01:27.846Z,224.55
2023-02-24T08:02:27.865Z,224.22
2023-02-24T08:03:27.802Z,225.15
2023-02-24T08:04:27.768Z,220.93
2023-02-24T08:05:27.766Z,223.56
2023-02-24T08:06:27.721Z,223.61
2023-02-24T08:07:27.657Z,221.96
2023-02-24T08:08:27.619Z,220.35
2023-02-24T08:09:27.623Z,217.51
2023-02-24T08:10:27.583Z,217.85
2023-02-24T08:11:27.577Z,216.53
2023-02-24T08:12:28.806Z,217.55
2023-02-24T08:13:27.476Z,215.33
2023-02-24T08:14:27.443Z,212.16
2023-02-24T08:15:27.418Z,213.34
2023-02-24T08:16:27.377Z,212.45
2023-02-24T08:17:27.339Z,209.82
2023-02-24T08:18:27.313Z,211.57
2023-02-24T08:19:27.274Z,209.33
2023-02-24T08:20:27.261Z,208.85
2023-02-24T08:21:27.197Z,208.01
2023-02-24T08:22:27.155Z,205.34
2023-02-24T08:23:27.127Z,206.79
2023-02-24T08:24:27.097Z,207.60
2023-02-24T08:25:27.074Z,206.26
2023-02-24T08:26:27.070Z,206.24
2023-02-24T08:27:27.028Z,204.63
2023-02-24T08:28:27.065Z,202.23
2023-02-24T08:29:26.953Z,201.19
2023-02-24T08:30:26.950Z,202.01
2023-02-24T08:31:27.118Z,202.88
2023-02-24T08:32:26.941Z,199.18
2023-02-24T08:33:26.838Z,201.00
2023-02-24T08:34:26.809Z,198.07
2023-02-24T08:35:26.772Z,198.22
2023-02-24T08:36:26.752Z,197.08
2023-02-24T08:37:26.740Z,191.40
2023-02-24T08:38:26.681Z,184.95
2023-02-24T08:39:26.658Z,156.54
2023-02-24T08:40:26.606Z,126.39
2023-02-24T08:41:26.607Z,128.02
2023-02-24T08:42:26.583Z,140.80
2023-02-24T08:43:26.544Z,150.12
2023-02-24T08:44:26.509Z,150.06
2023-02-24T08:45:26.503Z,150.70
2023-02-24T08:46:27.124Z,85.55
2023-02-24T08:47:26.556Z,60.45
2023-02-24T08:48:26.477Z,44.03
2023-02-24T08:49:26.436Z,15.91
2023-02-24T08:50:26.528Z,18.90
2023-02-24T08:51:26.453Z,18.43
2023-02-24T08:52:26.443Z,0.00
2023-02-24T08:53:26.439Z,0.00
2023-02-24T08:54:26.442Z,0.00
2023-02-24T08:55:26.449Z,0.00
2023-02-24T08:56:26.450Z,0.00
2023-02-24T08:57:26.479Z,3.59
2023-02-24T08:58:26.474Z,6.30
2023-02-24T08:59:26.481Z,15.47
2023-02-24T09:00:26.580Z,26.17
2023-02-24T09:01:26.474Z,25.00
2023-02-24T09:02:26.495Z,27.59
2023-02-24T09:03:26.478Z,30.03
2023-02-24T09:04:26.502Z,25.42
2023-02-24T09:05:26.493Z,26.34
2023-02-24T09:06:26.592Z,29.66
2023-02-24T09:07:26.520Z,24.01
2023-02-24T09:08:26.538Z,29.69
2023-02-24T09:09:26.525Z,23.89
2023-02-24T09:10:26.534Z,27.55
2023-02-24T09:11:26.548Z,52.92
2023-02-24T09:12:26.602Z,113.07
2023-02-24T09:13:26.579Z,113.66
2023-02-24T09:14:28.227Z,118.05
2023-02-24T09:15:26.533Z,128.46
2023-02-24T09:16:26.640Z,146.59
2023-02-24T09:17:26.520Z,170.81
2023-02-24T09:18:26.500Z,177.54
2023-02-24T09:19:26.488Z,180.37
2023-02-24T09:20:26.497Z,183.81
2023-02-24T09:21:26.457Z,185.99
2023-02-24T09:22:26.442Z,187.76
2023-02-24T09:23:26.426Z,187.73
2023-02-24T09:24:26.417Z,190.20
2023-02-24T09:25:26.395Z,186.89
2023-02-24T09:26:26.380Z,189.13
2023-02-24T09:27:26.366Z,185.42
2023-02-24T09:28:26.435Z,183.63
2023-02-24T09:29:26.316Z,182.55
2023-02-24T09:30:26.305Z,187.37
2023-02-24T09:31:26.906Z,189.29
2023-02-24T09:32:26.342Z,188.70
2023-02-24T09:33:26.252Z,185.82
2023-02-24T09:34:26.394Z,183.66
2023-02-24T09:35:26.179Z,184.98
2023-02-24T09:36:27.007Z,184.53
2023-02-24T09:37:26.128Z,185.02
2023-02-24T09:38:26.108Z,184.91
2023-02-24T09:39:26.098Z,184.28
2023-02-24T09:40:26.060Z,183.28
2023-02-24T09:41:26.075Z,182.86
2023-02-24T09:42:26.013Z,166.60
2023-02-24T09:43:26.031Z,160.39
2023-02-24T09:44:25.979Z,148.17
2023-02-24T09:45:26.086Z,148.03
2023-02-24T09:46:26.079Z,134.81
2023-02-24T09:47:25.936Z,139.06
2023-02-24T09:48:25.930Z,152.73
2023-02-24T09:49:25.924Z,150.40
2023-02-24T09:50:51.614Z,160.23
2023-02-24T09:51:25.868Z,153.50
2023-02-24T09:52:25.867Z,144.88
2023-02-24T09:53:25.858Z,129.56
2023-02-24T09:54:25.834Z,123.58
2023-02-24T09:55:25.851Z,123.18
2023-02-24T09:56:25.827Z,114.24
2023-02-24T09:57:25.862Z,91.96
2023-02-24T09:58:34.873Z,82.22
2023-02-24T09:59:26.908Z,78.10
2023-02-24T10:00:25.797Z,81.45
2023-02-24T10:01:26.097Z,76.77
2023-02-24T10:02:25.791Z,79.67
2023-02-24T10:03:25.772Z,75.68
2023-02-24T10:04:25.762Z,66.56
2023-02-24T10:05:25.748Z,72.04
2023-02-24T10:06:25.724Z,63.06
2023-02-24T10:07:25.710Z,57.21
2023-02-24T10:08:25.714Z,61.29
2023-02-24T10:09:25.697Z,52.85
2023-02-24T10:10:25.695Z,53.57
2023-02-24T10:11:25.692Z,50.81
2023-02-24T10:12:25.771Z,54.59
2023-02-24T10:13:25.695Z,52.82
2023-02-24T10:14:29.417Z,50.85
2023-02-24T10:15:26.650Z,51.43
2023-02-24T10:16:25.680Z,45.25
2023-02-24T10:17:25.658Z,41.51
2023-02-24T10:18:25.629Z,42.63
2023-02-24T10:19:25.616Z,37.26
2023-02-24T10:20:25.594Z,32.72
2023-02-24T10:21:25.592Z,32.77
2023-02-24T10:22:25.624Z,31.47
2023-02-24T10:23:25.586Z,29.62
2023-02-24T10:24:25.571Z,28.55
2023-02-24T10:25:25.586Z,31.07
2023-02-24T10:26:25.577Z,35.88
2023-02-24T10:27:25.569Z,26.06
2023-02-24T10:28:25.579Z,35.71
2023-02-24T10:29:25.571Z,38.97
2023-02-24T10:30:25.637Z,37.80
2023-02-24T10:31:26.455Z,74.98
2023-02-24T10:32:25.750Z,65.32
2023-02-24T10:33:25.600Z,94.80
2023-02-24T10:34:25.547Z,70.79
2023-02-24T10:35:25.548Z,61.52
2023-02-24T10:36:25.551Z,59.30
2023-02-24T10:37:29.058Z,57.44
2023-02-24T10:38:25.560Z,54.53
2023-02-24T10:39:25.740Z,63.53
2023-02-24T10:40:25.545Z,55.84
2023-02-24T10:41:25.528Z,61.50
2023-02-24T10:42:25.526Z,73.87
2023-02-24T10:43:25.544Z,71.76
2023-02-24T10:44:25.875Z,81.72
2023-02-24T10:45:25.487Z,94.53
2023-02-24T10:46:38.497Z,110.27
2023-02-24T10:47:26.438Z,72.50
2023-02-24T10:48:41.337Z,81.29
2023-02-24T10:49:26.407Z,73.51
2023-02-24T10:50:25.375Z,83.48
2023-02-24T10:51:25.487Z,100.44
2023-02-24T10:52:25.364Z,124.57
2023-02-24T10:53:25.342Z,157.62
2023-02-24T10:54:25.320Z,162.96
2023-02-24T10:55:25.314Z,165.64
2023-02-24T10:56:25.296Z,167.91
2023-02-24T10:57:25.249Z,166.47
2023-02-24T10:58:25.277Z,167.46
2023-02-24T10:59:25.439Z,160.86
2023-02-24T11:00:25.182Z,136.85
2023-02-24T11:01:25.371Z,152.41
2023-02-24T11:02:25.138Z,159.05
2023-02-24T11:03:32.661Z,149.13
2023-02-24T11:04:26.066Z,140.80
2023-02-24T11:05:25.114Z,147.96
2023-02-24T11:06:25.076Z,140.06
2023-02-24T11:07:25.130Z,156.86
2023-02-24T11:08:24.988Z,147.01
2023-02-24T11:09:24.959Z,149.52
2023-02-24T11:10:24.924Z,117.10
2023-02-24T11:11:24.962Z,137.30
2023-02-24T11:12:24.958Z,153.66
2023-02-24T11:13:24.828Z,99.89
2023-02-24T11:14:24.847Z,89.28
2023-02-24T11:15:24.957Z,95.46
2023-02-24T11:16:24.810Z,84.81
2023-02-24T11:17:24.732Z,79.10
2023-02-24T11:18:24.735Z,79.20
2023-02-24T11:19:24.691Z,79.32
2023-02-24T11:20:24.679Z,84.35
2023-02-24T11:21:24.665Z,100.66
2023-02-24T11:22:24.634Z,110.51
2023-02-24T11:23:24.613Z,145.22
2023-02-24T11:24:24.590Z,160.63
2023-02-24T11:25:24.563Z,131.58
2023-02-24T11:26:24.527Z,140.11
2023-02-24T11:27:24.503Z,112.28
2023-02-24T11:28:24.494Z,133.32
2023-02-24T11:29:24.458Z,114.33
2023-02-24T11:30:24.462Z,84.36
2023-02-24T11:31:24.933Z,124.51
2023-02-24T11:32:24.554Z,145.91
2023-02-24T11:33:24.349Z,150.38
2023-02-24T11:34:24.328Z,140.91
2023-02-24T11:35:24.346Z,130.56
2023-02-24T11:36:24.281Z,141.93
2023-02-24T11:37:24.332Z,143.18
2023-02-24T11:38:24.195Z,130.59
2023-02-24T11:39:24.175Z,133.55
2023-02-24T11:40:24.141Z,149.62
2023-02-24T11:41:24.435Z,134.20
2023-02-24T11:42:24.077Z,135.03
2023-02-24T11:43:24.060Z,137.98
2023-02-24T11:44:24.012Z,140.71
2023-02-24T11:45:23.978Z,147.46
2023-02-24T11:46:23.997Z,157.81
2023-02-24T11:47:23.900Z,152.42
2023-02-24T11:48:23.878Z,160.59
2023-02-24T11:49:23.849Z,163.08
2023-02-24T11:50:23.801Z,164.83
2023-02-24T11:51:23.998Z,164.73
2023-02-24T11:52:23.734Z,162.64
2023-02-24T11:53:23.701Z,160.47
2023-02-24T11:54:23.701Z,166.42
2023-02-24T11:55:23.640Z,168.87
2023-02-24T11:56:23.801Z,168.77
2023-02-24T11:57:23.578Z,167.01
2023-02-24T11:58:23.557Z,168.55
2023-02-24T11:59:23.510Z,168.31
2023-02-24T12:00:23.475Z,168.30
2023-02-24T12:01:24.233Z,169.23
2023-02-24T12:02:23.501Z,170.81
2023-02-24T12:03:23.380Z,170.86
2023-02-24T12:04:23.426Z,170.94
2023-02-24T12:05:23.465Z,170.88
2023-02-24T12:06:23.419Z,170.09
2023-02-24T12:07:23.228Z,171.14
2023-02-24T12:08:23.569Z,168.93
2023-02-24T12:09:23.162Z,170.91
2023-02-24T12:10:23.162Z,169.84
2023-02-24T12:11:23.883Z,168.18
2023-02-24T12:12:23.061Z,167.25
2023-02-24T12:13:23.029Z,166.87
2023-02-24T12:14:23.413Z,166.35
2023-02-24T12:15:22.947Z,169.01
2023-02-24T12:16:23.456Z,170.70
2023-02-24T12:17:23.260Z,171.30
2023-02-24T12:18:23.334Z,173.57
2023-02-24T12:19:23.844Z,171.73
2023-02-24T12:20:23.452Z,172.37
2023-02-24T12:21:23.264Z,171.97
2023-02-24T12:22:22.682Z,168.92
2023-02-24T12:23:22.650Z,168.82
2023-02-24T12:24:22.663Z,166.61
2023-02-24T12:25:22.576Z,164.63
2023-02-24T12:26:22.578Z,152.12
2023-02-24T12:27:22.697Z,152.40
2023-02-24T12:28:22.465Z,153.88
2023-02-24T12:29:22.417Z,157.06
2023-02-24T12:30:22.482Z,164.00
2023-02-24T12:31:22.850Z,173.91